This is the latest recevied weather packets stored in our database for station/object YM2KRB-11. If no packets are shown the sender has not sent any weather packets the latest 1 day(s).
| Time | Temp. | Humidity | Pressure | Rain* | Wind** | Luminosity | Snow |
|---|---|---|---|---|---|---|---|
| 1777927411 | 10° C | 61% | 938.1 hPa | - | - | - | - |
| 1777926210 | 9.44° C | 63% | 938.2 hPa | - | - | - | - |
| 1777925009 | 9.44° C | 61% | 938.1 hPa | - | - | - | - |
| 1777923808 | 9.44° C | 62% | 938.2 hPa | - | - | - | - |
| 1777922608 | 9.44° C | 60% | 937.9 hPa | - | - | - | - |
| 1777921407 | 10° C | 57% | 937.9 hPa | - | - | - | - |
| 1777920206 | 10° C | 58% | 937.9 hPa | - | - | - | - |
| 1777919005 | 11.11° C | 56% | 937.5 hPa | - | - | - | - |
| 1777917804 | 10° C | 57% | 937.3 hPa | - | - | - | - |
| 1777916603 | 10° C | 57% | 937 hPa | - | - | - | - |
| 1777915403 | 10.56° C | 56% | 936.7 hPa | - | - | - | - |
| 1777914202 | 10° C | 57% | 936.6 hPa | - | - | - | - |
| 1777913001 | 10° C | 57% | 936.4 hPa | - | - | - | - |
| 1777911800 | 10° C | 57% | 936.4 hPa | - | - | - | - |
| 1777910599 | 10.56° C | 56% | 936.1 hPa | - | - | - | - |
| 1777909399 | 11.67° C | 55% | 936 hPa | - | - | - | - |
| 1777908198 | 11.67° C | 53% | 935.8 hPa | - | - | - | - |
| 1777906997 | 12.78° C | 52% | 935.7 hPa | - | - | - | - |
| 1777905796 | 12.22° C | 53% | 935.6 hPa | - | - | - | - |
| 1777904596 | 12.78° C | 52% | 935.4 hPa | - | - | - | - |
| 1777903395 | 12.22° C | 53% | 935.4 hPa | - | - | - | - |
| 1777902194 | 12.22° C | 53% | 935.3 hPa | - | - | - | - |
| 1777900993 | 12.78° C | 53% | 935.2 hPa | - | - | - | - |
| 1777899792 | 13.33° C | 52% | 935.1 hPa | - | - | - | - |
| 1777898592 | 13.33° C | 56% | 935 hPa | - | - | - | - |
* Rain since midnight (hover to see other rain measurements)
** Current wind speed in m/s (hover to see current wind gust speed)